Time;durP1;ratioP1;P1;durP2;ratioP2;P2;SDS_P1;SDS_P2;PMS_P1;PMS_P2;Temp;Humidity;BMP_temperature;BMP_pressure;BME280_temperature;BME280_humidity;BME280_pressure;Samples;Min_cycle;Max_cycle;Signal;HPM_P1;HPM_P2
2024/04/13 00:02:15;;;;;;;8.50;6.17;;;13.80;1.00;;;;;;5315620;26;20251;-81
2024/04/13 00:04:46;;;;;;;9.03;6.47;;;13.70;1.00;;;;;;5320037;27;20310;-81
2024/04/13 00:07:12;;;;;;;10.73;7.10;;;13.60;1.00;;;;;;5320915;27;20286;-81
2024/04/13 00:09:41;;;;;;;8.50;6.23;;;13.60;23.10;;;;;;5319607;27;20291;-80
2024/04/13 00:12:07;;;;;;;9.87;6.50;;;13.70;1.00;;;;;;5321881;27;20285;-79
2024/04/13 00:14:35;;;;;;;8.73;6.50;;;13.70;1.00;;;;;;5326307;26;20256;-82
2024/04/13 00:17:02;;;;;;;9.67;6.33;;;13.60;1.00;;;;;;5321717;26;20248;-81
2024/04/13 00:19:34;;;;;;;9.87;6.57;;;13.50;1.00;;;;;;5325564;27;20255;-81
2024/04/13 00:22:04;;;;;;;8.87;6.70;;;13.40;96.50;;;;;;5320580;26;20290;-82
2024/04/13 00:24:34;;;;;;;10.37;6.77;;;13.40;99.90;;;;;;5325551;26;20247;-81
2024/04/13 00:27:00;;;;;;;11.43;7.73;;;13.40;1.00;;;;;;5324561;26;20639;-82
2024/04/13 00:29:31;;;;;;;13.00;7.07;;;13.20;1.00;;;;;;5325823;27;20736;-81
2024/04/13 00:31:57;;;;;;;8.90;6.03;;;13.20;1.00;;;;;;5324022;27;20263;-83
2024/04/13 00:34:26;;;;;;;10.37;7.07;;;13.10;1.00;;;;;;5313154;27;20255;-82
2024/04/13 00:36:52;;;;;;;10.90;7.00;;;13.10;1.00;;;;;;5324177;26;20307;-82
2024/04/13 00:39:24;;;;;;;11.33;6.73;;;13.10;7.30;;;;;;5319544;26;20282;-80
2024/04/13 00:41:53;;;;;;;9.37;7.10;;;13.00;18.70;;;;;;5308485;27;20722;-82
2024/04/13 00:44:22;;;;;;;8.73;6.47;;;12.90;99.90;;;;;;5314094;27;20243;-79
2024/04/13 00:46:48;;;;;;;10.57;7.20;;;12.70;99.90;;;;;;5325113;27;20282;-82
2024/04/13 00:49:19;;;;;;;10.57;6.63;;;12.70;99.90;;;;;;5323949;26;20248;-81
2024/04/13 00:51:48;;;;;;;10.43;6.53;;;12.60;99.90;;;;;;5313817;27;20259;-81
2024/04/13 00:54:20;;;;;;;10.67;7.07;;;12.60;99.90;;;;;;5318204;27;20353;-80
2024/04/13 00:56:53;;;;;;;13.50;7.60;;;12.60;99.90;;;;;;5318726;26;20290;-81
2024/04/13 00:59:24;;;;;;;12.33;6.93;;;12.60;99.90;;;;;;5323795;27;20639;-82
2024/04/13 01:01:50;;;;;;;13.20;7.13;;;12.50;99.90;;;;;;5313061;26;20247;-81
2024/04/13 01:04:21;;;;;;;12.03;7.20;;;12.60;99.90;;;;;;5321854;26;20296;-80
2024/04/13 01:06:49;;;;;;;11.50;6.53;;;12.50;99.90;;;;;;5319291;27;20289;-81
2024/04/13 01:09:20;;;;;;;11.13;6.57;;;12.60;99.90;;;;;;5324450;26;20318;-79
2024/04/13 01:11:46;;;;;;;12.43;7.30;;;12.50;99.90;;;;;;5314308;27;20250;-81
2024/04/13 01:14:18;;;;;;;11.53;6.90;;;12.40;99.90;;;;;;5322121;27;20326;-80
2024/04/13 01:16:44;;;;;;;9.50;6.57;;;12.40;99.90;;;;;;5321213;27;20252;-80
2024/04/13 01:19:12;;;;;;;11.27;7.50;;;12.40;99.90;;;;;;5319726;27;20870;-81
2024/04/13 01:21:39;;;;;;;15.10;7.37;;;12.50;99.90;;;;;;5322123;27;20244;-80
2024/04/13 01:24:11;;;;;;;10.53;6.87;;;12.50;99.90;;;;;;5313300;27;20287;-81
2024/04/13 01:26:38;;;;;;;11.43;7.47;;;12.40;99.90;;;;;;5315674;27;20300;-81
2024/04/13 01:29:07;;;;;;;12.43;7.87;;;12.60;99.90;;;;;;5319357;26;20290;-82
2024/04/13 01:31:35;;;;;;;10.17;7.27;;;12.60;99.90;;;;;;5321190;27;20248;-82
2024/04/13 01:34:04;;;;;;;13.63;7.67;;;12.50;99.90;;;;;;5320997;27;20255;-82
2024/04/13 01:36:37;;;;;;;11.63;6.80;;;12.40;99.90;;;;;;5302430;26;20260;-83
2024/04/13 01:39:07;;;;;;;12.90;7.80;;;12.40;99.90;;;;;;5323765;27;20251;-81
2024/04/13 01:41:43;;;;;;;11.77;8.03;;;12.50;99.90;;;;;;5323833;27;20294;-82
2024/04/13 01:44:10;;;;;;;14.00;8.33;;;12.60;99.90;;;;;;5322629;27;20306;-82
2024/04/13 01:46:38;;;;;;;11.60;7.70;;;12.50;99.90;;;;;;5323280;27;20604;-81
2024/04/13 01:49:05;;;;;;;10.43;7.70;;;12.30;99.90;;;;;;5314261;27;20287;-81
2024/04/13 01:51:34;;;;;;;10.57;7.93;;;12.60;99.90;;;;;;5312475;27;20361;-81
2024/04/13 01:54:00;;;;;;;11.50;7.67;;;12.30;99.90;;;;;;5306392;27;20253;-81
2024/04/13 01:56:28;;;;;;;13.17;8.40;;;12.40;99.90;;;;;;5322241;27;20302;-80
2024/04/13 01:58:57;;;;;;;12.70;8.50;;;12.50;99.90;;;;;;5324523;27;20247;-82
2024/04/13 02:01:27;;;;;;;11.80;7.53;;;12.50;99.90;;;;;;5323199;26;20296;-82
2024/04/13 02:03:53;;;;;;;12.23;7.83;;;12.50;99.90;;;;;;5315422;27;20286;-81
2024/04/13 02:06:22;;;;;;;13.33;8.53;;;12.30;99.90;;;;;;5322819;27;20328;-81
2024/04/13 02:08:48;;;;;;;12.77;7.73;;;12.30;99.90;;;;;;5320362;26;20945;-82
2024/04/13 02:11:16;;;;;;;14.00;8.20;;;12.30;99.90;;;;;;5319139;26;20305;-80
2024/04/13 02:13:42;;;;;;;16.13;8.40;;;12.40;99.90;;;;;;5319894;26;20276;-80
2024/04/13 02:16:14;;;;;;;13.37;8.43;;;12.30;99.90;;;;;;5318153;27;20249;-79
2024/04/13 02:18:40;;;;;;;12.27;7.73;;;12.20;99.90;;;;;;5322457;26;20361;-79
2024/04/13 02:21:09;;;;;;;12.10;7.50;;;12.00;99.90;;;;;;5322131;27;20664;-80
2024/04/13 02:23:35;;;;;;;10.80;7.87;;;12.00;99.90;;;;;;5323880;27;20248;-83
2024/04/13 02:26:07;;;;;;;12.00;7.90;;;12.10;99.90;;;;;;5318980;27;20338;-82
2024/04/13 02:28:34;;;;;;;12.50;8.30;;;12.00;99.90;;;;;;5323994;27;20247;-82
2024/04/13 02:31:04;;;;;;;13.47;8.30;;;11.90;99.90;;;;;;5314652;27;20295;-82
2024/04/13 02:33:33;;;;;;;13.63;8.07;;;11.90;99.90;;;;;;5322714;27;20252;-83
2024/04/13 02:36:02;;;;;;;12.67;8.73;;;11.80;99.90;;;;;;5314785;27;20256;-81
2024/04/13 02:38:28;;;;;;;10.73;7.10;;;11.90;99.90;;;;;;5321629;27;20290;-81
2024/04/13 02:40:58;;;;;;;12.93;8.53;;;11.90;99.90;;;;;;5321436;26;20298;-82
2024/04/13 02:43:24;;;;;;;12.57;8.07;;;11.70;99.90;;;;;;5311117;27;20252;-82
2024/04/13 02:45:53;;;;;;;12.17;8.17;;;11.80;99.90;;;;;;5323099;27;20295;-80
2024/04/13 02:48:20;;;;;;;13.17;8.23;;;11.70;99.90;;;;;;5321322;26;20604;-82
2024/04/13 02:50:52;;;;;;;12.20;8.30;;;11.80;99.90;;;;;;5312877;27;20259;-80
2024/04/13 02:53:18;;;;;;;12.20;8.17;;;11.80;99.90;;;;;;5321781;27;20247;-81
2024/04/13 02:55:47;;;;;;;13.30;8.43;;;11.90;99.90;;;;;;5323435;27;20290;-80
2024/04/13 02:58:13;;;;;;;13.67;8.90;;;11.90;99.90;;;;;;5321746;26;20294;-81
2024/04/13 03:00:41;;;;;;;14.13;8.43;;;11.90;99.90;;;;;;5319442;26;20252;-81
2024/04/13 03:03:07;;;;;;;12.00;7.80;;;11.80;99.90;;;;;;5316634;26;20283;-81
2024/04/13 03:05:37;;;;;;;11.67;7.53;;;11.80;99.90;;;;;;5323355;27;20322;-81
2024/04/13 03:08:06;;;;;;;14.77;8.87;;;11.80;99.90;;;;;;5314894;26;20307;-79
2024/04/13 03:10:35;;;;;;;16.07;9.17;;;11.90;99.90;;;;;;5318353;26;20274;-82
2024/04/13 03:13:01;;;;;;;14.53;8.57;;;12.00;99.90;;;;;;5311518;27;20245;-79
2024/04/13 03:15:29;;;;;;;13.67;8.13;;;12.00;99.90;;;;;;5317097;26;20278;-80
2024/04/13 03:17:55;;;;;;;13.73;8.80;;;12.00;99.90;;;;;;5318259;27;20278;-82
2024/04/13 03:20:25;;;;;;;13.63;9.40;;;12.00;99.90;;;;;;5322731;26;20252;-82
2024/04/13 03:22:51;;;;;;;14.57;8.63;;;11.90;99.90;;;;;;5322867;26;20344;-82
2024/04/13 03:25:23;;;;;;;13.47;8.40;;;11.90;99.90;;;;;;5325018;26;20240;-80
2024/04/13 03:27:49;;;;;;;13.33;8.53;;;12.00;99.90;;;;;;5315284;27;20251;-79
2024/04/13 03:30:17;;;;;;;13.30;8.40;;;11.90;99.90;;;;;;5321208;27;20239;-82
2024/04/13 03:32:43;;;;;;;13.77;9.03;;;11.90;99.90;;;;;;5321696;27;20255;-80
2024/04/13 03:35:12;;;;;;;15.83;9.07;;;11.80;99.90;;;;;;5322108;26;20703;-79
2024/04/13 03:37:38;;;;;;;21.50;14.30;;;11.90;99.90;;;;;;5322336;27;20251;-80
2024/04/13 03:40:08;;;;;;;21.47;15.00;;;12.00;99.90;;;;;;5313083;26;20754;-81
2024/04/13 03:42:47;;;;;;;12.60;8.47;;;11.90;99.90;;;;;;5302042;27;20255;-82
2024/04/13 03:45:16;;;;;;;13.20;8.30;;;11.80;99.90;;;;;;5311632;27;20243;-82
2024/04/13 03:47:45;;;;;;;14.33;8.93;;;11.80;99.90;;;;;;5307017;27;20692;-80
2024/04/13 03:50:11;;;;;;;12.83;8.60;;;11.70;99.90;;;;;;5312557;27;20255;-79
2024/04/13 03:52:43;;;;;;;14.80;9.13;;;11.70;99.90;;;;;;5310202;27;20252;-80
2024/04/13 03:55:09;;;;;;;11.23;7.80;;;11.70;99.90;;;;;;5310411;27;20280;-80
2024/04/13 03:57:37;;;;;;;13.50;8.80;;;11.70;99.90;;;;;;5301509;27;20295;-80
2024/04/13 04:00:08;;;;;;;15.27;8.83;;;11.80;99.90;;;;;;5311784;27;20573;-79
2024/04/13 04:02:37;;;;;;;13.67;9.10;;;11.80;99.90;;;;;;5315321;26;20864;-80
2024/04/13 04:05:03;;;;;;;15.03;9.43;;;12.00;99.90;;;;;;5304519;27;20245;-79
2024/04/13 04:07:32;;;;;;;15.50;8.37;;;11.90;99.90;;;;;;5313892;27;20303;-82
2024/04/13 04:10:00;;;;;;;17.07;9.80;;;11.90;99.90;;;;;;5311953;27;20248;-82
2024/04/13 04:12:28;;;;;;;17.33;10.80;;;12.10;99.90;;;;;;5313882;26;20260;-78
2024/04/13 04:14:54;;;;;;;17.27;10.87;;;12.00;99.90;;;;;;5308155;27;20358;-82
2024/04/13 04:17:26;;;;;;;23.43;16.10;;;12.20;99.90;;;;;;5314226;27;20267;-80
2024/04/13 04:19:52;;;;;;;14.17;9.83;;;12.20;99.90;;;;;;5312204;27;20278;-80
2024/04/13 04:22:20;;;;;;;16.53;9.97;;;12.20;99.90;;;;;;5312760;27;20303;-81
2024/04/13 04:24:46;;;;;;;16.53;9.10;;;12.30;99.90;;;;;;5310126;27;20240;-80
2024/04/13 04:27:16;;;;;;;14.97;9.33;;;12.30;99.90;;;;;;5315384;26;20289;-80
2024/04/13 04:29:43;;;;;;;15.10;9.23;;;12.30;99.90;;;;;;5314222;26;20245;-80
2024/04/13 04:32:12;;;;;;;13.53;8.90;;;12.30;99.90;;;;;;5299128;27;20259;-80
2024/04/13 04:34:41;;;;;;;15.43;9.27;;;12.30;99.90;;;;;;5311411;27;20290;-79
2024/04/13 04:37:10;;;;;;;15.47;9.70;;;12.40;99.90;;;;;;5310128;27;20256;-80
2024/04/13 04:39:36;;;;;;;14.47;9.57;;;12.40;99.90;;;;;;5310335;27;20334;-79
2024/04/13 04:42:06;;;;;;;14.00;8.93;;;12.50;99.90;;;;;;5311827;26;20258;-81
2024/04/13 04:44:32;;;;;;;11.90;8.67;;;12.40;99.90;;;;;;5306519;26;20255;-79
2024/04/13 04:47:01;;;;;;;14.33;8.83;;;12.30;99.90;;;;;;5310810;27;20248;-79
2024/04/13 04:49:27;;;;;;;13.97;8.53;;;12.40;99.90;;;;;;5310762;27;20255;-80
2024/04/13 04:51:58;;;;;;;14.27;9.00;;;12.30;99.90;;;;;;5311590;27;20248;-80
2024/04/13 04:54:24;;;;;;;13.87;8.63;;;12.50;99.90;;;;;;5304889;27;20737;-80
2024/04/13 04:56:53;;;;;;;15.10;9.37;;;12.40;99.90;;;;;;5307155;27;20332;-80
2024/04/13 04:59:19;;;;;;;13.57;8.80;;;12.50;99.90;;;;;;5306643;27;20339;-80
2024/04/13 05:01:47;;;;;;;15.40;9.50;;;12.60;99.90;;;;;;5309468;26;20267;-80
2024/04/13 05:04:14;;;;;;;13.13;8.60;;;12.50;99.90;;;;;;5315842;27;20247;-80
2024/04/13 05:06:42;;;;;;;17.80;10.37;;;12.50;99.90;;;;;;5315195;26;20622;-80
2024/04/13 05:09:11;;;;;;;15.50;9.60;;;12.60;99.90;;;;;;5305192;27;20259;-81
2024/04/13 05:11:40;;;;;;;13.97;8.83;;;12.70;99.90;;;;;;5315214;27;20244;-80
2024/04/13 05:14:07;;;;;;;14.83;9.30;;;12.70;99.90;;;;;;5311403;26;20299;-81
2024/04/13 05:16:36;;;;;;;14.87;8.70;;;12.60;99.90;;;;;;5313566;27;20256;-79
2024/04/13 05:19:03;;;;;;;19.17;9.27;;;12.60;99.90;;;;;;5308075;27;20294;-80
2024/04/13 05:21:32;;;;;;;15.73;9.53;;;12.60;99.90;;;;;;5300773;27;20264;-80
2024/04/13 05:23:58;;;;;;;14.27;9.30;;;13.00;99.90;;;;;;5307835;27;20284;-79
2024/04/13 05:26:29;;;;;;;13.87;9.23;;;13.90;99.90;;;;;;5315568;27;20256;-80
2024/04/13 05:28:56;;;;;;;13.40;8.53;;;14.10;99.90;;;;;;5320337;26;20263;-80
2024/04/13 05:31:24;;;;;;;14.37;8.83;;;14.20;99.90;;;;;;5307952;27;20335;-80
2024/04/13 05:33:50;;;;;;;13.33;8.87;;;14.70;99.90;;;;;;5305040;27;20294;-79
2024/04/13 05:36:19;;;;;;;12.47;8.17;;;15.00;99.90;;;;;;5310559;27;20311;-79
2024/04/13 05:38:45;;;;;;;15.27;8.70;;;15.00;99.90;;;;;;5313646;27;20244;-79
2024/04/13 05:41:14;;;;;;;13.30;9.43;;;15.10;43.40;;;;;;5312582;27;20311;-80
2024/04/13 05:43:42;;;;;;;15.50;9.90;;;14.80;1.00;;;;;;5311705;27;20245;-80
2024/04/13 05:46:11;;;;;;;11.17;7.70;;;14.60;1.00;;;;;;5307535;27;20251;-78
2024/04/13 05:48:37;;;;;;;12.97;7.53;;;14.50;1.00;;;;;;5307867;27;20628;-78
2024/04/13 05:51:07;;;;;;;13.75;7.28;;;14.40;1.00;;;;;;5312822;27;20287;-79
2024/04/13 05:53:33;;;;;;;11.05;7.35;;;14.60;99.90;;;;;;5311701;27;20243;-79
2024/04/13 05:56:08;;;;;;;11.77;7.05;;;14.80;1.00;;;;;;5315134;27;20243;-78
2024/04/13 05:58:35;;;;;;;13.38;7.78;;;15.10;1.00;;;;;;5315392;27;20243;-79
2024/04/13 06:01:07;;;;;;;10.48;7.10;;;15.50;1.00;;;;;;5312327;27;20248;-78
2024/04/13 06:03:33;;;;;;;14.00;7.40;;;15.30;1.00;;;;;;5315677;27;20247;-79
2024/04/13 06:06:02;;;;;;;12.32;6.82;;;15.00;1.00;;;;;;5317923;26;20326;-79
2024/04/13 06:08:28;;;;;;;10.88;7.88;;;15.00;1.00;;;;;;5321092;26;20740;-80
2024/04/13 06:10:57;;;;;;;11.95;7.32;;;15.00;1.00;;;;;;5317312;27;20283;-81
2024/04/13 06:13:23;;;;;;;11.30;6.55;;;15.30;99.90;;;;;;5317955;27;20370;-81
2024/04/13 06:15:52;;;;;;;12.40;6.38;;;16.20;1.00;;;;;;5316034;27;20240;-78
2024/04/13 06:18:21;;;;;;;10.20;6.40;;;17.60;1.00;;;;;;5317419;27;20252;-80
2024/04/13 06:20:49;;;;;;;11.93;6.65;;;17.70;99.90;;;;;;5316455;26;20236;-79
2024/04/13 06:23:17;;;;;;;8.35;5.95;;;17.60;1.00;;;;;;5314460;27;20333;-79
2024/04/13 06:25:48;;;;;;;9.75;5.82;;;18.20;1.00;;;;;;5313951;27;20252;-78
2024/04/13 06:28:14;;;;;;;9.80;6.13;;;18.30;99.90;;;;;;5316826;27;20259;-80
2024/04/13 06:30:43;;;;;;;8.70;5.07;;;18.80;99.90;;;;;;5316092;27;20255;-80
2024/04/13 06:33:10;;;;;;;9.10;5.13;;;18.60;1.00;;;;;;5316205;26;20257;-81
2024/04/13 06:35:42;;;;;;;7.15;5.20;;;18.30;1.00;;;;;;5319321;27;20746;-79
2024/04/13 06:38:08;;;;;;;9.05;5.20;;;18.10;1.00;;;;;;5316281;27;20255;-78
2024/04/13 06:40:37;;;;;;;10.55;5.10;;;18.00;1.00;;;;;;5313453;27;20287;-78
2024/04/13 06:43:04;;;;;;;8.90;5.53;;;18.00;1.00;;;;;;5315654;27;20361;-78
2024/04/13 06:45:35;;;;;;;10.85;5.60;;;17.70;1.00;;;;;;5303766;27;20369;-78
2024/04/13 06:48:01;;;;;;;12.43;5.38;;;17.80;1.00;;;;;;5303065;27;20838;-78
2024/04/13 06:50:30;;;;;;;10.48;4.93;;;17.70;99.90;;;;;;5314396;27;20244;-80
2024/04/13 06:52:58;;;;;;;9.70;4.80;;;17.90;99.90;;;;;;5315624;27;20255;-80
2024/04/13 06:55:27;;;;;;;8.95;5.13;;;17.70;99.90;;;;;;5305896;27;20325;-82
2024/04/13 06:57:53;;;;;;;6.32;4.80;;;18.00;99.90;;;;;;5315069;27;20252;-77
2024/04/13 07:00:22;;;;;;;10.52;4.93;;;18.10;99.90;;;;;;5314347;27;20298;-77
2024/04/13 07:02:48;;;;;;;7.40;4.57;;;18.10;99.90;;;;;;5315574;27;20754;-78
2024/04/13 07:05:16;;;;;;;8.35;5.00;;;18.10;99.90;;;;;;5315192;27;20353;-76
2024/04/13 07:07:42;;;;;;;8.35;5.43;;;18.10;99.90;;;;;;5316237;27;20255;-78
2024/04/13 07:10:14;;;;;;;12.02;5.47;;;18.00;99.90;;;;;;5310499;27;20290;-78
2024/04/13 07:12:40;;;;;;;8.35;5.13;;;17.80;99.90;;;;;;5302055;27;20253;-79
2024/04/13 07:15:09;;;;;;;8.82;4.95;;;17.90;99.90;;;;;;5317824;27;20868;-78
2024/04/13 07:17:35;;;;;;;7.90;4.32;;;18.20;91.30;;;;;;5315088;26;20828;-78
2024/04/13 07:20:06;;;;;;;7.43;4.57;;;18.40;28.60;;;;;;5314958;26;20279;-76
2024/04/13 07:22:32;;;;;;;9.07;4.97;;;18.50;1.00;;;;;;5318549;26;20287;-78
2024/04/13 07:25:01;;;;;;;8.88;4.88;;;18.20;1.00;;;;;;5318024;26;20315;-79
2024/04/13 07:27:29;;;;;;;11.15;5.15;;;18.10;1.00;;;;;;5295864;27;20253;-79
2024/04/13 07:29:58;;;;;;;5.53;4.43;;;18.20;1.00;;;;;;5313728;27;20248;-78
2024/04/13 07:32:24;;;;;;;8.05;4.47;;;18.60;1.00;;;;;;5316984;27;20255;-77
2024/04/13 07:34:53;;;;;;;8.07;4.88;;;18.70;1.00;;;;;;5317714;27;20353;-77
2024/04/13 07:37:19;;;;;;;7.30;4.72;;;19.70;1.00;;;;;;5308690;27;20650;-77
2024/04/13 07:39:47;;;;;;;6.72;4.70;;;19.80;1.00;;;;;;5317161;27;20243;-77
2024/04/13 07:42:13;;;;;;;8.25;4.32;;;19.90;1.00;;;;;;5316086;27;20290;-78
2024/04/13 07:44:45;;;;;;;9.07;4.60;;;19.00;1.00;;;;;;5319824;27;20249;-80
2024/04/13 07:47:11;;;;;;;5.90;4.47;;;19.10;1.00;;;;;;5313598;27;20264;-80
2024/04/13 07:49:40;;;;;;;7.95;4.22;;;18.90;1.00;;;;;;5298425;27;20295;-78
2024/04/13 07:52:06;;;;;;;8.25;4.40;;;18.90;1.00;;;;;;5311595;27;20255;-80
2024/04/13 07:54:35;;;;;;;8.05;4.15;;;19.00;1.00;;;;;;5311226;27;20286;-79
2024/04/13 07:57:01;;;;;;;5.97;3.78;;;19.00;1.00;;;;;;5316566;27;20256;-77
2024/04/13 07:59:30;;;;;;;8.82;3.97;;;19.00;1.00;;;;;;5309497;26;20289;-78
2024/04/13 08:01:59;;;;;;;7.78;4.18;;;18.90;1.00;;;;;;5313757;27;20252;-77
2024/04/13 08:04:28;;;;;;;10.73;4.28;;;18.90;1.00;;;;;;5309772;27;20299;-77
2024/04/13 08:06:54;;;;;;;8.50;4.13;;;19.00;1.00;;;;;;5297525;27;20256;-77
2024/04/13 08:09:22;;;;;;;7.07;3.50;;;18.80;1.00;;;;;;5313662;27;20251;-78
2024/04/13 08:11:48;;;;;;;5.03;3.45;;;18.90;1.00;;;;;;5306930;27;20368;-77
2024/04/13 08:14:17;;;;;;;6.93;3.80;;;18.90;1.00;;;;;;5312072;27;20249;-78
2024/04/13 08:16:45;;;;;;;5.85;3.67;;;19.00;1.00;;;;;;5308881;27;20252;-78
2024/04/13 08:19:17;;;;;;;6.53;3.45;;;19.30;1.00;;;;;;5313452;27;20282;-77
2024/04/13 08:21:43;;;;;;;5.05;3.55;;;19.30;1.00;;;;;;5308712;27;20330;-76
2024/04/13 08:24:11;;;;;;;7.53;4.07;;;19.20;1.00;;;;;;5310782;27;20742;-79
2024/04/13 08:26:37;;;;;;;5.80;4.28;;;19.30;1.00;;;;;;5298588;27;20658;-78
2024/04/13 08:29:06;;;;;;;5.18;3.47;;;19.60;1.00;;;;;;5314364;27;20309;-78
2024/04/13 08:31:32;;;;;;;5.30;3.33;;;19.80;1.00;;;;;;5308576;27;20280;-78
2024/04/13 08:34:01;;;;;;;8.63;3.88;;;19.80;1.00;;;;;;5304525;27;20279;-77
2024/04/13 08:36:29;;;;;;;5.22;3.20;;;19.90;99.90;;;;;;5313110;26;20278;-80
2024/04/13 08:38:58;;;;;;;5.03;3.47;;;19.90;99.90;;;;;;5307670;27;20321;-79
2024/04/13 08:41:37;;;;;;;5.65;2.95;;;19.80;99.90;;;;;;5311942;27;20298;-78
2024/04/13 08:44:06;;;;;;;5.88;3.60;;;20.00;99.90;;;;;;5308919;27;20279;-78
2024/04/13 08:46:35;;;;;;;5.93;3.10;;;20.00;99.90;;;;;;5305883;27;20294;-77
2024/04/13 08:49:05;;;;;;;4.60;2.95;;;20.00;99.90;;;;;;5315778;27;20287;-78
2024/04/13 08:51:36;;;;;;;6.72;3.33;;;19.80;99.90;;;;;;5315631;27;20244;-77
2024/04/13 08:54:06;;;;;;;4.78;3.00;;;19.90;99.90;;;;;;5313186;27;20678;-79
2024/04/13 08:56:36;;;;;;;4.00;3.00;;;20.20;99.90;;;;;;5316500;26;20303;-79
2024/04/13 08:59:08;;;;;;;5.65;3.33;;;20.20;99.90;;;;;;5311785;27;20322;-78
2024/04/13 09:01:34;;;;;;;4.95;3.17;;;20.40;99.90;;;;;;5316571;27;20251;-78
2024/04/13 09:04:04;;;;;;;4.78;2.97;;;20.50;99.90;;;;;;5315874;27;20290;-78
2024/04/13 09:06:33;;;;;;;7.88;3.60;;;20.50;99.90;;;;;;5316117;27;20311;-78
2024/04/13 09:09:08;;;;;;;4.85;2.67;;;20.70;99.90;;;;;;5307609;27;20354;-78
2024/04/13 09:11:35;;;;;;;4.60;2.83;;;21.30;99.90;;;;;;5307612;27;20310;-79
2024/04/13 09:14:03;;;;;;;4.28;2.78;;;21.30;99.90;;;;;;5308864;27;20719;-78
2024/04/13 09:16:30;;;;;;;5.93;3.00;;;21.60;99.90;;;;;;5314067;27;20251;-77
2024/04/13 09:18:59;;;;;;;3.20;2.78;;;21.30;99.90;;;;;;5316120;27;20353;-78
2024/04/13 09:21:30;;;;;;;3.33;2.95;;;21.30;75.00;;;;;;5303365;27;20239;-77
2024/04/13 09:24:02;;;;;;;6.00;2.83;;;21.00;12.40;;;;;;5315784;26;20338;-78
2024/04/13 09:26:28;;;;;;;4.05;2.65;;;21.30;54.70;;;;;;5313074;27;20718;-80
2024/04/13 09:28:57;;;;;;;4.22;2.85;;;21.40;50.90;;;;;;5316342;27;20252;-77
2024/04/13 09:31:25;;;;;;;4.40;2.55;;;21.10;24.50;;;;;;5313845;27;20378;-77
2024/04/13 09:33:55;;;;;;;4.15;2.60;;;21.00;19.70;;;;;;5315441;27;20327;-77
2024/04/13 09:36:22;;;;;;;4.30;2.40;;;21.00;39.10;;;;;;5307229;27;20258;-77
2024/04/13 09:38:53;;;;;;;3.97;2.30;;;21.20;1.00;;;;;;5311239;27;20251;-78
2024/04/13 09:41:23;;;;;;;2.85;2.00;;;21.20;1.00;;;;;;5310447;27;20252;-77
2024/04/13 09:43:52;;;;;;;6.03;2.50;;;21.50;4.50;;;;;;5309741;27;20294;-77
2024/04/13 09:46:19;;;;;;;4.55;2.60;;;21.50;1.00;;;;;;5304066;27;20337;-77
2024/04/13 09:48:48;;;;;;;4.85;2.22;;;21.40;1.00;;;;;;5316645;26;20251;-77
2024/04/13 09:51:14;;;;;;;4.80;2.40;;;21.90;1.00;;;;;;5313291;27;20247;-78
2024/04/13 09:53:43;;;;;;;3.33;2.42;;;22.00;1.00;;;;;;5314659;27;20252;-78
2024/04/13 09:56:10;;;;;;;3.17;2.45;;;21.80;1.00;;;;;;5317338;27;20244;-79
2024/04/13 09:58:41;;;;;;;6.70;2.60;;;21.60;1.00;;;;;;5317538;27;20254;-78
2024/04/13 10:01:07;;;;;;;3.28;2.45;;;21.90;1.00;;;;;;5315161;27;20248;-78
2024/04/13 10:03:37;;;;;;;4.20;2.47;;;21.60;1.00;;;;;;5316453;27;20286;-79
2024/04/13 10:06:04;;;;;;;3.88;2.40;;;21.80;1.00;;;;;;5312642;27;20256;-79
2024/04/13 10:08:35;;;;;;;3.00;2.60;;;21.80;1.00;;;;;;5316706;26;20738;-79
2024/04/13 10:11:04;;;;;;;4.63;2.95;;;21.70;1.00;;;;;;5317771;27;20247;-79
2024/04/13 10:13:37;;;;;;;5.50;2.58;;;21.70;1.00;;;;;;5317064;27;20256;-79
2024/04/13 10:16:07;;;;;;;3.08;2.53;;;21.60;1.00;;;;;;5314660;27;20290;-78
2024/04/13 10:18:35;;;;;;;2.85;2.60;;;21.90;1.00;;;;;;5314159;27;20244;-78
2024/04/13 10:21:02;;;;;;;4.28;2.90;;;22.00;2.80;;;;;;5305677;27;20249;-78
2024/04/13 10:23:39;;;;;;;3.97;2.80;;;22.20;11.80;;;;;;5317036;27;20259;-78
2024/04/13 10:26:05;;;;;;;5.90;3.75;;;22.20;5.70;;;;;;5314448;27;20299;-78
2024/04/13 10:28:34;;;;;;;5.80;3.00;;;22.50;18.70;;;;;;5304881;27;20734;-79
2024/04/13 10:31:00;;;;;;;4.63;2.67;;;22.80;64.10;;;;;;5314646;27;20290;-79
2024/04/13 10:33:32;;;;;;;3.17;2.60;;;22.60;1.00;;;;;;5309309;27;20247;-78
2024/04/13 10:36:00;;;;;;;4.68;2.45;;;22.60;1.50;;;;;;5310632;27;20232;-77
2024/04/13 10:38:30;;;;;;;3.72;2.63;;;22.80;1.00;;;;;;5306799;27;20294;-78
2024/04/13 10:40:57;;;;;;;4.95;2.80;;;22.80;1.00;;;;;;5307060;26;20278;-77
2024/04/13 10:43:27;;;;;;;2.85;2.55;;;23.00;1.00;;;;;;5313058;27;20354;-78
2024/04/13 10:45:54;;;;;;;3.72;2.67;;;23.00;1.00;;;;;;5315006;27;20294;-78
2024/04/13 10:48:23;;;;;;;2.80;2.25;;;22.90;1.00;;;;;;5314252;27;20289;-77
2024/04/13 10:50:55;;;;;;;2.60;2.40;;;23.00;1.00;;;;;;5312228;26;20511;-77
2024/04/13 10:53:27;;;;;;;2.30;2.10;;;22.90;1.00;;;;;;5312988;27;20344;-78
2024/04/13 10:55:55;;;;;;;3.58;2.38;;;23.10;1.00;;;;;;5307096;27;20302;-78
2024/04/13 10:58:30;;;;;;;3.35;1.90;;;23.30;1.00;;;;;;5312246;27;20312;-76
2024/04/13 11:00:57;;;;;;;4.63;2.00;;;22.70;1.00;;;;;;5313898;27;20289;-77
2024/04/13 11:03:27;;;;;;;3.25;2.33;;;23.00;1.00;;;;;;5305932;27;20903;-76
2024/04/13 11:05:56;;;;;;;2.55;2.17;;;22.90;1.00;;;;;;5311138;27;20286;-79
2024/04/13 11:08:26;;;;;;;3.33;2.45;;;23.10;1.00;;;;;;5307427;27;20244;-77
2024/04/13 11:10:54;;;;;;;3.90;2.25;;;23.20;1.00;;;;;;5312364;26;20255;-78
2024/04/13 11:13:23;;;;;;;4.30;2.72;;;23.40;1.00;;;;;;5311816;27;20745;-77
2024/04/13 11:15:49;;;;;;;4.97;2.58;;;22.90;1.00;;;;;;5314027;27;20263;-77
2024/04/13 11:18:18;;;;;;;3.47;2.33;;;23.10;1.00;;;;;;5309387;27;20320;-77
2024/04/13 11:20:47;;;;;;;2.75;2.08;;;23.00;1.00;;;;;;5313292;27;20248;-77
2024/04/13 11:23:19;;;;;;;5.88;3.10;;;22.80;1.00;;;;;;5311510;27;20255;-76
2024/04/13 11:25:46;;;;;;;4.32;2.70;;;23.00;1.00;;;;;;5307728;27;20596;-79
2024/04/13 11:28:15;;;;;;;3.95;2.47;;;23.10;1.00;;;;;;5313226;27;20753;-77
2024/04/13 11:30:41;;;;;;;5.78;2.67;;;22.90;1.00;;;;;;5310567;27;20251;-77
2024/04/13 11:33:10;;;;;;;5.55;3.15;;;23.30;1.00;;;;;;5304653;27;20256;-78
2024/04/13 11:35:37;;;;;;;5.43;2.55;;;23.30;1.00;;;;;;5307174;27;20277;-79
2024/04/13 11:38:05;;;;;;;2.83;2.30;;;23.10;1.00;;;;;;5307578;27;20301;-78
2024/04/13 11:40:35;;;;;;;2.63;2.25;;;23.10;1.00;;;;;;5312917;26;20729;-77
2024/04/13 11:43:05;;;;;;;3.80;2.38;;;23.50;1.00;;;;;;5313070;26;20282;-77
2024/04/13 11:45:32;;;;;;;4.68;2.63;;;23.40;1.00;;;;;;5310966;27;20243;-78
2024/04/13 11:48:02;;;;;;;3.65;2.28;;;23.40;1.00;;;;;;5308249;27;20350;-78
2024/04/13 11:50:29;;;;;;;3.90;2.58;;;23.70;1.00;;;;;;5313303;27;20263;-78
2024/04/13 11:52:59;;;;;;;5.78;3.22;;;23.50;1.00;;;;;;5315839;27;20270;-77
2024/04/13 11:55:29;;;;;;;3.08;2.63;;;23.70;1.00;;;;;;5312742;27;20236;-77
2024/04/13 11:58:00;;;;;;;3.80;2.70;;;23.50;1.00;;;;;;5311731;27;20295;-79
2024/04/13 12:00:26;;;;;;;2.78;2.53;;;23.60;1.00;;;;;;5310965;27;20282;-78
2024/04/13 12:02:56;;;;;;;5.15;2.60;;;23.90;1.00;;;;;;5314678;27;20661;-75
2024/04/13 12:05:22;;;;;;;3.75;2.50;;;23.80;1.00;;;;;;5313543;27;20310;-79
2024/04/13 12:07:51;;;;;;;6.13;2.60;;;24.00;1.00;;;;;;5300220;27;20351;-78
2024/04/13 12:10:17;;;;;;;4.43;2.50;;;24.10;1.00;;;;;;5312355;27;20252;-78
2024/04/13 12:12:45;;;;;;;5.07;2.95;;;24.10;1.00;;;;;;5315709;27;20286;-77
2024/04/13 12:15:14;;;;;;;4.95;2.90;;;23.80;1.00;;;;;;5314616;27;20247;-76
2024/04/13 12:17:42;;;;;;;5.38;2.85;;;23.60;1.00;;;;;;5308780;27;20293;-79
2024/04/13 12:20:09;;;;;;;5.85;3.30;;;24.00;1.00;;;;;;5312296;27;20278;-76
2024/04/13 12:22:37;;;;;;;6.60;3.30;;;24.20;1.00;;;;;;5316374;26;20289;-79
2024/04/13 12:25:04;;;;;;;4.93;2.53;;;24.10;1.00;;;;;;5315075;27;20251;-78
2024/04/13 12:27:33;;;;;;;4.50;2.45;;;24.10;1.00;;;;;;5313976;27;20791;-77
2024/04/13 12:29:59;;;;;;;3.88;2.95;;;24.10;1.00;;;;;;5308424;26;20255;-80
2024/04/13 12:32:30;;;;;;;3.08;2.58;;;23.80;1.00;;;;;;5312160;27;20251;-78
2024/04/13 12:34:57;;;;;;;4.43;2.97;;;23.70;1.00;;;;;;5313988;27;20247;-78
2024/04/13 12:37:26;;;;;;;8.15;3.72;;;23.80;1.00;;;;;;5313287;26;20251;-78
2024/04/13 12:39:52;;;;;;;3.10;2.80;;;23.50;1.00;;;;;;5303322;27;20239;-76
2024/04/13 12:42:23;;;;;;;4.78;2.47;;;23.40;1.00;;;;;;5316270;27;20743;-78
2024/04/13 12:44:49;;;;;;;7.28;3.05;;;23.50;1.00;;;;;;5302605;27;20239;-79
2024/04/13 12:47:18;;;;;;;4.65;2.60;;;23.70;1.00;;;;;;5312017;27;20252;-77
2024/04/13 12:49:46;;;;;;;4.05;2.60;;;23.60;1.00;;;;;;5313698;27;20248;-77
2024/04/13 12:52:15;;;;;;;8.48;2.75;;;23.70;1.00;;;;;;5318135;27;20845;-77